createdAt,value
2022-11-10T00:00:29.786Z,0.00
2022-11-10T00:01:29.773Z,0.00
2022-11-10T00:02:29.753Z,0.00
2022-11-10T00:03:29.747Z,0.00
2022-11-10T00:04:29.981Z,0.00
2022-11-10T00:05:29.729Z,0.00
2022-11-10T00:06:29.765Z,0.00
2022-11-10T00:07:29.722Z,0.00
2022-11-10T00:08:29.699Z,0.00
2022-11-10T00:09:29.682Z,0.00
2022-11-10T00:10:29.676Z,0.00
2022-11-10T00:11:29.659Z,0.00
2022-11-10T00:12:29.646Z,0.00
2022-11-10T00:13:29.652Z,0.00
2022-11-10T00:14:29.632Z,0.00
2022-11-10T00:15:29.633Z,0.00
2022-11-10T00:16:29.606Z,0.00
2022-11-10T00:17:29.594Z,0.00
2022-11-10T00:18:29.576Z,0.00
2022-11-10T00:19:29.573Z,0.00
2022-11-10T00:20:29.577Z,0.00
2022-11-10T00:21:29.556Z,0.00
2022-11-10T00:22:29.552Z,0.00
2022-11-10T00:23:29.524Z,0.00
2022-11-10T00:24:29.509Z,0.00
2022-11-10T00:25:29.505Z,0.00
2022-11-10T00:26:29.492Z,0.00
2022-11-10T00:27:29.498Z,0.00
2022-11-10T00:28:29.463Z,0.00
2022-11-10T00:29:29.457Z,0.00
2022-11-10T00:30:29.445Z,0.00
2022-11-10T00:31:29.435Z,0.00
2022-11-10T00:32:29.448Z,0.00
2022-11-10T00:33:29.414Z,0.00
2022-11-10T00:34:29.395Z,0.00
2022-11-10T00:35:29.420Z,0.00
2022-11-10T00:36:29.401Z,0.00
2022-11-10T00:37:29.374Z,0.00
2022-11-10T00:38:29.362Z,0.00
2022-11-10T00:39:29.353Z,0.00
2022-11-10T00:40:29.332Z,0.00
2022-11-10T00:41:29.323Z,0.00
2022-11-10T00:42:29.323Z,0.00
2022-11-10T00:43:29.840Z,0.00
2022-11-10T00:44:29.296Z,0.00
2022-11-10T00:45:29.278Z,0.00
2022-11-10T00:46:29.263Z,0.00
2022-11-10T00:47:29.256Z,0.00
2022-11-10T00:48:29.262Z,0.00
2022-11-10T00:49:29.232Z,0.00
2022-11-10T00:50:29.221Z,0.00
2022-11-10T00:51:29.226Z,0.00
2022-11-10T00:52:29.219Z,0.00
2022-11-10T00:53:29.198Z,0.00
2022-11-10T00:54:29.192Z,0.00
2022-11-10T00:55:29.165Z,0.00
2022-11-10T00:56:29.157Z,0.00
2022-11-10T00:57:29.144Z,0.00
2022-11-10T00:58:29.162Z,0.00
2022-11-10T00:59:29.123Z,0.00
2022-11-10T01:00:29.107Z,0.00
2022-11-10T01:01:29.196Z,0.00
2022-11-10T01:02:29.095Z,0.00
2022-11-10T01:03:29.084Z,0.00
2022-11-10T01:04:29.078Z,0.00
2022-11-10T01:05:29.055Z,0.00
2022-11-10T01:06:29.107Z,0.00
2022-11-10T01:07:29.035Z,0.00
2022-11-10T01:08:29.041Z,0.00
2022-11-10T01:09:29.020Z,0.00
2022-11-10T01:10:28.999Z,0.00
2022-11-10T01:11:29.004Z,0.00
2022-11-10T01:12:28.976Z,0.00
2022-11-10T01:13:28.968Z,0.00
2022-11-10T01:14:28.974Z,0.00
2022-11-10T01:15:28.943Z,0.00
2022-11-10T01:16:28.929Z,0.00
2022-11-10T01:17:28.922Z,0.00
2022-11-10T01:18:28.922Z,0.00
2022-11-10T01:19:28.924Z,0.00
2022-11-10T01:20:28.889Z,0.00
2022-11-10T01:21:28.878Z,0.00
2022-11-10T01:22:28.866Z,0.00
2022-11-10T01:23:28.859Z,0.00
2022-11-10T01:24:28.861Z,0.00
2022-11-10T01:25:28.854Z,0.00
2022-11-10T01:26:28.816Z,0.00
2022-11-10T01:27:28.813Z,0.00
2022-11-10T01:28:28.803Z,0.00
2022-11-10T01:29:28.791Z,0.00
2022-11-10T01:30:28.784Z,0.00
2022-11-10T01:31:28.779Z,0.00
2022-11-10T01:32:28.748Z,0.00
2022-11-10T01:33:28.749Z,0.00
2022-11-10T01:34:28.734Z,0.00
2022-11-10T01:35:28.748Z,0.00
2022-11-10T01:36:28.708Z,0.00
2022-11-10T01:37:28.712Z,0.00
2022-11-10T01:38:28.685Z,0.00
2022-11-10T01:39:28.678Z,0.00
2022-11-10T01:40:28.729Z,0.00
2022-11-10T01:41:28.676Z,0.00
2022-11-10T01:42:28.641Z,0.00
2022-11-10T01:43:28.636Z,0.00
2022-11-10T01:44:28.635Z,0.00
2022-11-10T01:45:28.612Z,0.00
2022-11-10T01:46:28.597Z,0.00
2022-11-10T01:47:28.602Z,0.00
2022-11-10T01:48:28.576Z,0.00
2022-11-10T01:49:28.564Z,0.00
2022-11-10T01:50:28.567Z,0.00
2022-11-10T01:51:28.551Z,0.00
2022-11-10T01:52:28.532Z,0.00
2022-11-10T01:53:28.522Z,0.00
2022-11-10T01:54:28.508Z,0.00
2022-11-10T01:55:28.501Z,0.00
2022-11-10T01:56:28.518Z,0.00
2022-11-10T01:57:28.485Z,0.00
2022-11-10T01:58:28.464Z,0.00
2022-11-10T01:59:28.478Z,0.00
2022-11-10T02:00:28.473Z,0.00
2022-11-10T02:01:28.441Z,0.00
2022-11-10T02:02:28.427Z,0.00
2022-11-10T02:03:28.414Z,0.00
2022-11-10T02:04:28.396Z,0.00
2022-11-10T02:05:28.393Z,0.00
2022-11-10T02:06:28.372Z,0.00
2022-11-10T02:07:28.379Z,0.00
2022-11-10T02:08:28.352Z,0.00
2022-11-10T02:09:28.349Z,0.00
2022-11-10T02:10:28.329Z,0.00
2022-11-10T02:11:28.335Z,0.00
2022-11-10T02:12:28.333Z,0.00
2022-11-10T02:13:28.307Z,0.00
2022-11-10T02:14:28.286Z,0.00
2022-11-10T02:15:28.275Z,0.00
2022-11-10T02:16:28.262Z,0.00
2022-11-10T02:17:28.270Z,0.00
2022-11-10T02:18:28.259Z,0.00
2022-11-10T02:19:28.232Z,0.00
2022-11-10T02:20:28.235Z,0.00
2022-11-10T02:21:28.210Z,0.00
2022-11-10T02:22:28.193Z,0.00
2022-11-10T02:23:28.188Z,0.00
2022-11-10T02:24:28.201Z,0.00
2022-11-10T02:25:28.165Z,0.00
2022-11-10T02:26:28.172Z,0.00
2022-11-10T02:27:28.155Z,0.00
2022-11-10T02:28:28.152Z,0.00
2022-11-10T02:29:28.122Z,0.00
2022-11-10T02:30:28.116Z,0.00
2022-11-10T02:31:28.108Z,0.00
2022-11-10T02:32:28.102Z,0.00
2022-11-10T02:33:28.079Z,0.00
2022-11-10T02:34:28.072Z,0.00
2022-11-10T02:35:28.080Z,0.00
2022-11-10T02:36:28.041Z,0.00
2022-11-10T02:37:28.051Z,0.00
2022-11-10T02:38:28.017Z,0.00
2022-11-10T02:39:28.016Z,0.00
2022-11-10T02:40:27.996Z,0.00
2022-11-10T02:41:27.991Z,0.00
2022-11-10T02:42:27.982Z,0.00
2022-11-10T02:43:27.967Z,0.00
2022-11-10T02:44:27.986Z,0.00
2022-11-10T02:45:27.949Z,0.00
2022-11-10T02:46:27.926Z,0.00
2022-11-10T02:47:27.920Z,0.00
2022-11-10T02:48:27.915Z,0.00
2022-11-10T02:49:27.908Z,0.00
2022-11-10T02:50:27.885Z,0.00
2022-11-10T02:51:27.894Z,0.00
2022-11-10T02:52:27.863Z,0.00
2022-11-10T02:53:27.858Z,0.00
2022-11-10T02:54:27.863Z,0.00
2022-11-10T02:55:27.830Z,0.00
2022-11-10T02:56:27.821Z,0.00
2022-11-10T02:57:27.835Z,0.00
2022-11-10T02:58:27.812Z,0.00
2022-11-10T02:59:27.792Z,0.00
2022-11-10T03:00:27.806Z,0.00
2022-11-10T03:01:27.830Z,0.00
2022-11-10T03:02:32.100Z,0.00
2022-11-10T03:03:27.751Z,0.00
2022-11-10T03:04:27.730Z,0.00
2022-11-10T03:05:27.732Z,0.00
2022-11-10T03:06:27.714Z,0.00
2022-11-10T03:07:27.717Z,0.00
2022-11-10T03:08:27.687Z,0.00
2022-11-10T03:09:27.685Z,0.00
2022-11-10T03:10:27.674Z,0.00
2022-11-10T03:11:32.061Z,0.00
2022-11-10T03:12:27.651Z,0.00
2022-11-10T03:13:40.306Z,0.00
2022-11-10T03:14:28.619Z,0.00
2022-11-10T03:15:27.636Z,0.00
2022-11-10T03:16:27.623Z,0.00
2022-11-10T03:17:27.594Z,0.00
2022-11-10T03:18:27.577Z,0.00
2022-11-10T03:19:27.569Z,0.00
2022-11-10T03:20:27.556Z,0.00
2022-11-10T03:21:27.558Z,0.00
2022-11-10T03:22:27.553Z,0.00
2022-11-10T03:23:27.535Z,0.00
2022-11-10T03:24:27.524Z,0.00
2022-11-10T03:25:27.502Z,0.00
2022-11-10T03:26:27.498Z,0.00
2022-11-10T03:27:27.479Z,0.00
2022-11-10T03:28:27.475Z,0.00
2022-11-10T03:29:27.464Z,0.00
2022-11-10T03:30:27.466Z,0.00
2022-11-10T03:31:27.471Z,0.00
2022-11-10T03:32:27.447Z,0.00
2022-11-10T03:33:27.410Z,0.00
2022-11-10T03:34:31.685Z,0.00
2022-11-10T03:35:27.387Z,0.00
2022-11-10T03:36:27.394Z,0.00
2022-11-10T03:37:27.382Z,0.00
2022-11-10T03:38:27.362Z,0.00
2022-11-10T03:39:27.343Z,0.00
2022-11-10T03:40:27.334Z,0.00
2022-11-10T03:41:27.333Z,0.00
2022-11-10T03:42:27.324Z,0.00
2022-11-10T03:43:27.311Z,0.00
2022-11-10T03:44:27.306Z,0.00
2022-11-10T03:45:27.278Z,0.00
2022-11-10T03:46:27.270Z,0.00
2022-11-10T03:47:27.253Z,0.00
2022-11-10T03:48:27.277Z,0.00
2022-11-10T03:49:27.242Z,0.00
2022-11-10T03:50:27.238Z,0.00
2022-11-10T03:51:27.220Z,0.00
2022-11-10T03:52:27.204Z,0.00
2022-11-10T03:53:27.196Z,0.00
2022-11-10T03:54:27.180Z,0.00
2022-11-10T03:55:27.171Z,0.00
2022-11-10T03:56:27.172Z,0.00
2022-11-10T03:57:27.144Z,0.00
2022-11-10T03:58:27.158Z,0.00
2022-11-10T03:59:27.126Z,0.00
2022-11-10T04:00:27.113Z,0.00
2022-11-10T04:01:27.151Z,0.00
2022-11-10T04:02:27.093Z,0.00
2022-11-10T04:03:27.098Z,0.00
2022-11-10T04:04:27.111Z,0.00
2022-11-10T04:05:27.066Z,0.00
2022-11-10T04:06:27.048Z,0.00
2022-11-10T04:07:27.029Z,0.00
2022-11-10T04:08:27.053Z,0.00
2022-11-10T04:09:27.055Z,0.00
2022-11-10T04:10:27.548Z,0.00
2022-11-10T04:11:26.990Z,0.00
2022-11-10T04:12:27.113Z,0.00
2022-11-10T04:13:26.977Z,0.00
2022-11-10T04:14:27.068Z,0.00
2022-11-10T04:15:26.948Z,0.00
2022-11-10T04:16:27.540Z,0.00
2022-11-10T04:17:26.936Z,0.00
2022-11-10T04:18:26.920Z,0.00
2022-11-10T04:19:26.904Z,0.00
2022-11-10T04:20:26.913Z,0.00
2022-11-10T04:21:26.886Z,0.00
2022-11-10T04:22:26.874Z,0.00
2022-11-10T04:23:26.868Z,0.00
2022-11-10T04:24:26.850Z,0.00
2022-11-10T04:25:26.832Z,0.00
2022-11-10T04:26:26.840Z,0.00
2022-11-10T04:27:26.825Z,0.00
2022-11-10T04:28:26.820Z,0.00
2022-11-10T04:29:26.791Z,0.00
2022-11-10T04:30:26.779Z,0.00
2022-11-10T04:31:26.773Z,0.00
2022-11-10T04:32:26.779Z,0.00
2022-11-10T04:33:26.747Z,0.00
2022-11-10T04:34:26.746Z,0.00
2022-11-10T04:35:26.723Z,0.00
2022-11-10T04:36:26.737Z,0.00
2022-11-10T04:37:26.714Z,0.00
2022-11-10T04:38:26.695Z,0.00
2022-11-10T04:39:26.710Z,0.00
2022-11-10T04:40:26.672Z,0.00
2022-11-10T04:41:26.675Z,0.00
2022-11-10T04:42:26.658Z,0.00
2022-11-10T04:43:26.636Z,0.00
2022-11-10T04:44:26.633Z,0.00
2022-11-10T04:45:26.625Z,0.00
2022-11-10T04:46:26.616Z,0.00
2022-11-10T04:47:26.588Z,0.00
2022-11-10T04:48:26.591Z,0.00
2022-11-10T04:49:26.570Z,0.00
2022-11-10T04:50:26.558Z,0.00
2022-11-10T04:51:26.620Z,0.00
2022-11-10T04:52:26.560Z,0.00
2022-11-10T04:53:26.524Z,0.00
2022-11-10T04:54:26.536Z,0.00
2022-11-10T04:55:26.507Z,0.00
2022-11-10T04:56:26.505Z,0.00
2022-11-10T04:57:26.481Z,0.00
2022-11-10T04:58:26.472Z,0.00
2022-11-10T04:59:26.468Z,0.00
2022-11-10T05:00:26.456Z,0.00
2022-11-10T05:01:26.582Z,0.00
2022-11-10T05:02:26.434Z,0.00
2022-11-10T05:03:26.413Z,0.00
2022-11-10T05:04:26.407Z,0.00
2022-11-10T05:05:26.397Z,0.00
2022-11-10T05:06:35.135Z,0.00
2022-11-10T05:07:26.382Z,0.00
2022-11-10T05:08:26.387Z,0.00
2022-11-10T05:09:26.353Z,0.00
2022-11-10T05:10:26.373Z,0.00
2022-11-10T05:11:26.343Z,0.00
2022-11-10T05:12:26.343Z,0.00
2022-11-10T05:13:26.311Z,0.00
2022-11-10T05:14:26.300Z,0.00
2022-11-10T05:15:26.282Z,0.00
2022-11-10T05:16:26.318Z,0.00
2022-11-10T05:17:26.261Z,0.00
2022-11-10T05:18:26.247Z,0.00
2022-11-10T05:19:26.238Z,0.00
2022-11-10T05:20:26.259Z,0.00
2022-11-10T05:21:26.222Z,0.00
2022-11-10T05:22:26.254Z,0.00
2022-11-10T05:23:26.194Z,0.00
2022-11-10T05:24:26.207Z,0.00
2022-11-10T05:25:26.169Z,0.00
2022-11-10T05:26:26.177Z,0.00
2022-11-10T05:27:26.155Z,0.00
2022-11-10T05:28:26.151Z,0.00
2022-11-10T05:29:26.130Z,0.00
2022-11-10T05:30:26.122Z,0.00
2022-11-10T05:31:26.140Z,0.00
2022-11-10T05:32:26.105Z,0.00
2022-11-10T05:33:26.357Z,0.00
2022-11-10T05:34:26.071Z,0.00
2022-11-10T05:35:26.075Z,0.00
2022-11-10T05:36:26.059Z,0.00
2022-11-10T05:37:26.036Z,0.00
2022-11-10T05:38:26.036Z,0.00
2022-11-10T05:39:26.013Z,0.00
2022-11-10T05:40:26.026Z,0.00
2022-11-10T05:41:26.007Z,0.00
2022-11-10T05:42:26.002Z,0.00
2022-11-10T05:43:26.276Z,0.00
2022-11-10T05:44:25.963Z,0.00
2022-11-10T05:45:25.947Z,0.00
2022-11-10T05:46:25.944Z,0.00
2022-11-10T05:47:25.928Z,0.00
2022-11-10T05:48:25.945Z,0.00
2022-11-10T05:49:25.923Z,0.00
2022-11-10T05:50:25.898Z,0.00
2022-11-10T05:51:25.880Z,0.00
2022-11-10T05:52:25.878Z,0.00
2022-11-10T05:53:25.970Z,0.00
2022-11-10T05:54:25.862Z,0.00
2022-11-10T05:55:25.847Z,0.00
2022-11-10T05:56:25.847Z,0.00
2022-11-10T05:57:25.820Z,0.00
2022-11-10T05:58:25.808Z,0.00
2022-11-10T05:59:25.816Z,0.00
2022-11-10T06:00:25.790Z,0.00
2022-11-10T06:01:25.792Z,0.00
2022-11-10T06:02:25.774Z,0.00
2022-11-10T06:03:26.451Z,0.00
2022-11-10T06:04:25.758Z,0.00
2022-11-10T06:05:30.855Z,0.00
2022-11-10T06:06:26.730Z,0.00
2022-11-10T06:07:25.707Z,0.00
2022-11-10T06:08:25.704Z,0.00
2022-11-10T06:09:25.686Z,0.00
2022-11-10T06:10:25.676Z,0.00
2022-11-10T06:11:25.666Z,0.00
2022-11-10T06:12:25.674Z,0.00
2022-11-10T06:13:25.934Z,0.00
2022-11-10T06:14:25.640Z,4.00
2022-11-10T06:15:25.628Z,4.00
2022-11-10T06:16:25.623Z,0.00
2022-11-10T06:17:25.600Z,4.00
2022-11-10T06:18:25.590Z,0.00
2022-11-10T06:19:25.576Z,4.00
2022-11-10T06:20:25.565Z,4.00
2022-11-10T06:21:25.549Z,4.00
2022-11-10T06:22:25.548Z,4.00
2022-11-10T06:23:25.992Z,4.00
2022-11-10T06:24:25.522Z,4.00
2022-11-10T06:25:25.509Z,4.00
2022-11-10T06:26:25.625Z,4.00
2022-11-10T06:27:25.492Z,4.00
2022-11-10T06:28:25.496Z,8.00
2022-11-10T06:29:26.917Z,12.00
2022-11-10T06:30:25.452Z,8.00
2022-11-10T06:31:25.441Z,16.00
2022-11-10T06:32:25.495Z,16.00
2022-11-10T06:33:25.672Z,24.00
2022-11-10T06:34:25.412Z,24.00
2022-11-10T06:35:25.396Z,32.00
2022-11-10T06:36:25.389Z,36.00
2022-11-10T06:37:25.380Z,36.00
2022-11-10T06:38:25.384Z,44.00
2022-11-10T06:39:25.349Z,44.00
2022-11-10T06:40:25.360Z,56.00
2022-11-10T06:41:25.651Z,48.00
2022-11-10T06:42:25.326Z,64.00
2022-11-10T06:43:25.488Z,60.00
2022-11-10T06:44:25.319Z,68.00
2022-11-10T06:45:25.289Z,68.00
2022-11-10T06:46:25.277Z,76.00
2022-11-10T06:47:25.262Z,80.00
2022-11-10T06:48:25.268Z,96.00
2022-11-10T06:49:25.238Z,104.00
2022-11-10T06:50:25.232Z,104.00
2022-11-10T06:51:25.219Z,120.00
2022-11-10T06:52:25.210Z,116.00
2022-11-10T06:53:27.188Z,136.00
2022-11-10T06:54:25.221Z,120.00
2022-11-10T06:55:25.177Z,148.00
2022-11-10T06:56:25.186Z,136.00
2022-11-10T06:57:25.179Z,180.00
2022-11-10T06:58:25.151Z,184.00
2022-11-10T06:59:25.149Z,224.00
2022-11-10T07:00:25.149Z,236.00
2022-11-10T07:01:25.173Z,256.00
2022-11-10T07:02:25.100Z,272.00
2022-11-10T07:03:25.380Z,276.00
2022-11-10T07:04:25.095Z,312.00
2022-11-10T07:05:25.141Z,292.00
2022-11-10T07:06:25.051Z,340.00
2022-11-10T07:07:25.041Z,304.00
2022-11-10T07:08:25.039Z,372.00
2022-11-10T07:09:25.019Z,332.00
2022-11-10T07:10:25.016Z,344.00
2022-11-10T07:11:25.010Z,308.00
2022-11-10T07:12:25.001Z,316.00
2022-11-10T07:13:25.297Z,348.00
2022-11-10T07:14:24.997Z,388.00
2022-11-10T07:15:24.965Z,464.00
2022-11-10T07:16:24.965Z,480.00
2022-11-10T07:17:24.934Z,512.00
2022-11-10T07:18:24.927Z,476.00
2022-11-10T07:19:24.920Z,548.00
2022-11-10T07:20:24.933Z,552.00
2022-11-10T07:21:24.905Z,568.00
2022-11-10T07:22:24.954Z,552.00
2022-11-10T07:23:25.275Z,632.00
2022-11-10T07:24:24.851Z,604.00
2022-11-10T07:25:24.868Z,700.00
2022-11-10T07:26:24.825Z,724.00
2022-11-10T07:27:24.819Z,720.00
2022-11-10T07:28:28.328Z,700.00
2022-11-10T07:29:24.811Z,760.00
2022-11-10T07:30:24.789Z,784.00
2022-11-10T07:31:24.795Z,808.00
2022-11-10T07:32:24.789Z,864.00
2022-11-10T07:33:25.142Z,828.00
2022-11-10T07:34:24.742Z,800.00
2022-11-10T07:35:24.746Z,856.00
2022-11-10T07:36:24.745Z,940.00
2022-11-10T07:37:24.725Z,896.00
2022-11-10T07:38:24.694Z,1004.00
2022-11-10T07:39:24.693Z,964.00
2022-11-10T07:40:24.673Z,1056.00
2022-11-10T07:41:24.687Z,960.00
2022-11-10T07:42:24.672Z,1108.00
2022-11-10T07:43:24.963Z,1044.00
2022-11-10T07:44:24.628Z,1216.00
2022-11-10T07:45:24.650Z,1128.00
2022-11-10T07:46:24.620Z,1260.00
2022-11-10T07:47:24.609Z,1268.00
2022-11-10T07:48:24.624Z,1324.00
2022-11-10T07:49:24.576Z,1264.00
2022-11-10T07:50:24.567Z,1312.00
2022-11-10T07:51:24.567Z,1376.00
2022-11-10T07:52:24.539Z,1536.00
2022-11-10T07:53:24.849Z,1468.00
2022-11-10T07:54:24.532Z,1532.00
2022-11-10T07:55:24.521Z,1560.00
2022-11-10T07:56:24.498Z,1572.00
2022-11-10T07:57:24.487Z,1744.00
2022-11-10T07:58:24.488Z,1716.00
2022-11-10T07:59:24.474Z,1756.00
2022-11-10T08:00:24.451Z,1888.00
2022-11-10T08:01:24.557Z,2416.00
2022-11-10T08:02:24.438Z,2004.00
2022-11-10T08:03:24.855Z,2484.00
2022-11-10T08:04:24.437Z,2108.00
2022-11-10T08:05:24.427Z,2772.00
2022-11-10T08:06:24.448Z,2468.00
2022-11-10T08:07:24.473Z,3112.00
2022-11-10T08:08:24.381Z,2620.00
2022-11-10T08:09:24.362Z,3248.00
2022-11-10T08:10:24.354Z,12716.00
2022-11-10T08:11:24.335Z,13736.00
2022-11-10T08:12:24.363Z,14560.00
2022-11-10T08:13:24.751Z,10440.00
2022-11-10T08:14:24.312Z,24256.00
2022-11-10T08:15:24.288Z,22656.00
2022-11-10T08:16:24.292Z,21408.00
2022-11-10T08:17:24.265Z,13792.00
2022-11-10T08:18:24.254Z,15488.00
2022-11-10T08:19:24.241Z,26176.00
2022-11-10T08:20:24.260Z,44128.00
2022-11-10T08:21:24.222Z,46240.00
2022-11-10T08:22:24.231Z,41664.00
2022-11-10T08:23:24.632Z,40704.00
2022-11-10T08:24:24.184Z,43040.00
2022-11-10T08:25:24.196Z,50720.00
2022-11-10T08:26:24.163Z,53376.00
2022-11-10T08:27:24.153Z,48768.00
2022-11-10T08:28:24.144Z,55968.00
2022-11-10T08:29:24.139Z,54336.00
2022-11-10T08:30:24.117Z,51424.00
2022-11-10T08:31:24.117Z,34976.00
2022-11-10T08:32:24.099Z,10972.00
2022-11-10T08:33:24.532Z,4804.00
2022-11-10T08:34:24.073Z,4748.00
2022-11-10T08:35:24.073Z,4608.00
2022-11-10T08:36:24.082Z,4488.00
2022-11-10T08:37:24.039Z,4628.00
2022-11-10T08:38:24.025Z,4580.00
2022-11-10T08:39:38.264Z,4332.00
2022-11-10T08:40:25.030Z,4388.00
2022-11-10T08:41:24.016Z,4436.00
2022-11-10T08:42:23.988Z,4256.00
2022-11-10T08:43:24.438Z,4180.00
2022-11-10T08:44:23.975Z,4288.00
2022-11-10T08:45:23.970Z,4268.00
2022-11-10T08:46:23.949Z,4184.00
2022-11-10T08:47:23.932Z,4200.00
2022-11-10T08:48:23.916Z,4188.00
2022-11-10T08:49:23.912Z,4060.00
2022-11-10T08:50:23.964Z,3924.00
2022-11-10T08:51:23.909Z,3908.00
2022-11-10T08:52:23.901Z,4036.00
2022-11-10T08:53:24.464Z,4028.00
2022-11-10T08:54:23.869Z,3844.00
2022-11-10T08:55:23.844Z,4036.00
2022-11-10T08:56:23.828Z,3920.00
2022-11-10T08:57:23.861Z,3804.00
2022-11-10T08:58:23.810Z,3876.00
2022-11-10T08:59:23.808Z,4032.00
2022-11-10T09:00:23.859Z,3868.00
2022-11-10T09:01:23.823Z,3812.00
2022-11-10T09:02:23.759Z,3836.00
2022-11-10T09:03:24.043Z,3808.00
2022-11-10T09:04:23.779Z,3812.00
2022-11-10T09:05:23.729Z,3840.00
2022-11-10T09:06:23.743Z,3688.00
2022-11-10T09:07:23.711Z,3680.00
2022-11-10T09:08:23.723Z,3712.00
2022-11-10T09:09:23.717Z,3656.00
2022-11-10T09:10:23.707Z,3592.00
2022-11-10T09:11:23.665Z,3688.00
2022-11-10T09:12:23.664Z,3636.00
2022-11-10T09:13:29.540Z,3540.00
2022-11-10T09:14:24.637Z,3640.00
2022-11-10T09:15:23.640Z,3564.00
2022-11-10T09:16:23.606Z,3404.00
2022-11-10T09:17:23.609Z,3340.00
2022-11-10T09:18:23.605Z,3384.00
2022-11-10T09:19:23.636Z,3364.00
2022-11-10T09:20:23.561Z,3376.00
2022-11-10T09:21:23.555Z,3360.00
2022-11-10T09:22:23.554Z,3288.00
2022-11-10T09:23:23.934Z,3188.00
2022-11-10T09:24:27.149Z,3168.00
2022-11-10T09:25:24.507Z,3312.00
2022-11-10T09:26:23.511Z,3128.00
2022-11-10T09:27:23.485Z,3124.00
2022-11-10T09:28:23.480Z,3192.00
2022-11-10T09:29:23.469Z,2964.00
2022-11-10T09:30:23.538Z,3144.00
2022-11-10T09:31:23.439Z,3016.00
2022-11-10T09:32:23.447Z,2996.00
2022-11-10T09:33:23.749Z,2832.00
2022-11-10T09:34:23.404Z,2728.00
2022-11-10T09:35:23.410Z,2376.00
2022-11-10T09:36:23.394Z,2704.00
2022-11-10T09:37:23.376Z,2776.00
2022-11-10T09:38:23.771Z,2944.00
2022-11-10T09:39:23.368Z,2888.00
2022-11-10T09:40:23.357Z,2676.00
2022-11-10T09:41:23.354Z,2672.00
2022-11-10T09:42:23.318Z,2428.00
2022-11-10T09:43:23.671Z,2372.00
2022-11-10T09:44:23.294Z,2480.00
2022-11-10T09:45:23.315Z,2572.00
2022-11-10T09:46:23.289Z,2372.00
2022-11-10T09:47:50.534Z,2348.00
2022-11-10T09:48:24.590Z,2360.00
2022-11-10T09:49:23.254Z,2420.00
2022-11-10T09:50:23.234Z,2292.00
2022-11-10T09:51:23.218Z,2316.00
2022-11-10T09:52:23.211Z,2388.00
2022-11-10T09:53:23.215Z,2244.00
2022-11-10T09:54:23.196Z,2000.00
2022-11-10T09:55:23.209Z,1932.00
2022-11-10T09:56:23.199Z,2020.00
2022-11-10T09:57:23.179Z,2048.00
2022-11-10T09:58:23.493Z,2064.00
2022-11-10T09:59:23.135Z,2028.00
2022-11-10T10:00:23.116Z,2044.00
2022-11-10T10:01:23.254Z,2152.00
2022-11-10T10:02:23.108Z,2032.00
2022-11-10T10:03:23.085Z,1976.00
2022-11-10T10:04:23.069Z,2204.00
2022-11-10T10:05:23.071Z,2240.00
2022-11-10T10:06:23.054Z,1616.00
2022-11-10T10:07:23.088Z,2052.00
2022-11-10T10:08:23.334Z,2240.00
2022-11-10T10:09:23.016Z,2100.00
2022-11-10T10:10:23.005Z,2148.00
2022-11-10T10:11:23.000Z,1936.00
2022-11-10T10:12:23.016Z,1876.00
2022-11-10T10:13:22.983Z,2024.00
2022-11-10T10:14:22.973Z,1872.00
2022-11-10T10:15:25.572Z,1896.00
2022-11-10T10:16:22.944Z,2012.00
2022-11-10T10:17:26.867Z,1868.00
2022-11-10T10:18:23.108Z,1884.00
2022-11-10T10:19:22.904Z,2012.00
2022-11-10T10:20:22.917Z,1928.00
2022-11-10T10:21:22.884Z,1960.00
2022-11-10T10:22:22.876Z,2096.00
2022-11-10T10:23:40.405Z,2204.00
2022-11-10T10:24:23.855Z,2080.00
2022-11-10T10:25:22.864Z,2120.00
2022-11-10T10:26:22.834Z,2140.00
2022-11-10T10:27:22.814Z,2040.00
2022-11-10T10:28:23.066Z,2284.00
2022-11-10T10:29:22.826Z,2204.00
2022-11-10T10:30:22.786Z,2176.00
2022-11-10T10:31:22.772Z,2308.00
2022-11-10T10:32:22.779Z,2212.00
2022-11-10T10:33:22.761Z,2256.00
2022-11-10T10:34:22.741Z,2100.00
2022-11-10T10:35:22.749Z,2416.00
2022-11-10T10:36:22.716Z,2396.00
2022-11-10T10:37:22.723Z,2108.00
2022-11-10T10:38:22.952Z,2236.00
2022-11-10T10:39:22.681Z,2264.00
2022-11-10T10:40:22.702Z,1436.00
2022-11-10T10:41:24.057Z,2192.00
2022-11-10T10:42:22.652Z,2396.00
2022-11-10T10:43:22.640Z,1968.00
2022-11-10T10:44:22.668Z,2244.00
2022-11-10T10:45:22.676Z,2248.00
2022-11-10T10:46:22.618Z,2284.00
2022-11-10T10:47:22.607Z,2020.00
2022-11-10T10:48:22.891Z,2168.00
2022-11-10T10:49:28.535Z,2160.00
2022-11-10T10:50:23.643Z,2056.00
2022-11-10T10:51:22.549Z,2100.00
2022-11-10T10:52:22.551Z,1256.00
2022-11-10T10:53:22.542Z,1964.00
2022-11-10T10:54:22.535Z,2240.00
2022-11-10T10:55:22.507Z,2028.00
2022-11-10T10:56:22.513Z,1976.00
2022-11-10T10:57:22.530Z,1924.00
2022-11-10T10:58:22.810Z,1984.00
2022-11-10T10:59:22.472Z,1992.00
2022-11-10T11:00:22.571Z,1960.00
2022-11-10T11:01:22.502Z,1944.00
2022-11-10T11:02:22.458Z,2004.00
2022-11-10T11:03:22.414Z,1892.00
2022-11-10T11:04:22.435Z,1872.00
2022-11-10T11:05:22.394Z,1976.00
2022-11-10T11:06:22.390Z,1100.00
2022-11-10T11:07:29.969Z,1856.00
2022-11-10T11:08:22.644Z,1920.00
2022-11-10T11:09:22.357Z,1968.00
2022-11-10T11:10:22.419Z,1240.00
2022-11-10T11:11:22.328Z,1796.00
2022-11-10T11:12:22.334Z,1936.00
2022-11-10T11:13:22.318Z,1920.00
2022-11-10T11:14:22.305Z,1904.00
2022-11-10T11:15:22.285Z,1848.00
2022-11-10T11:16:22.296Z,1904.00
2022-11-10T11:17:22.431Z,1924.00
2022-11-10T11:18:22.652Z,1264.00
2022-11-10T11:19:22.242Z,1972.00
2022-11-10T11:20:22.247Z,2076.00
2022-11-10T11:21:22.216Z,1856.00
2022-11-10T11:22:22.213Z,1960.00
2022-11-10T11:23:22.221Z,1196.00
2022-11-10T11:24:22.184Z,1964.00
2022-11-10T11:25:22.181Z,2036.00
2022-11-10T11:26:22.172Z,1996.00
2022-11-10T11:27:22.156Z,1960.00
2022-11-10T11:28:22.577Z,2000.00
2022-11-10T11:29:22.125Z,2076.00
2022-11-10T11:30:22.184Z,1352.00
2022-11-10T11:31:22.111Z,1756.00
2022-11-10T11:32:22.115Z,1776.00
2022-11-10T11:33:22.095Z,1980.00
2022-11-10T11:34:22.073Z,1960.00
2022-11-10T11:35:22.064Z,1880.00
2022-11-10T11:36:22.070Z,2008.00
2022-11-10T11:37:22.054Z,2316.00
2022-11-10T11:38:22.467Z,1452.00
2022-11-10T11:39:22.015Z,1772.00
2022-11-10T11:40:22.011Z,1452.00
2022-11-10T11:41:21.999Z,1984.00
2022-11-10T11:42:21.984Z,1160.00
2022-11-10T11:43:21.987Z,1040.00
2022-11-10T11:44:21.968Z,1036.00
2022-11-10T11:45:21.952Z,2076.00
2022-11-10T11:46:21.950Z,2060.00
2022-11-10T11:47:21.938Z,1056.00
2022-11-10T11:48:22.212Z,2020.00
2022-11-10T11:49:21.911Z,2268.00
2022-11-10T11:50:21.897Z,1132.00
2022-11-10T11:51:21.899Z,1192.00
2022-11-10T11:52:21.876Z,2168.00
2022-11-10T11:53:21.883Z,2356.00
2022-11-10T11:54:21.857Z,2400.00
2022-11-10T11:55:21.837Z,2484.00
2022-11-10T11:56:21.830Z,2696.00
2022-11-10T11:57:21.823Z,5172.00
2022-11-10T11:58:22.218Z,6448.00
2022-11-10T11:59:21.848Z,10532.00
2022-11-10T12:00:21.803Z,12660.00
2022-11-10T12:01:21.795Z,10108.00
2022-11-10T12:02:21.773Z,10668.00
2022-11-10T12:03:21.752Z,9864.00
2022-11-10T12:04:21.761Z,1488.00
2022-11-10T12:05:21.730Z,8440.00
2022-11-10T12:06:21.722Z,7584.00
2022-11-10T12:07:21.736Z,924.00
2022-11-10T12:08:22.173Z,8392.00
2022-11-10T12:09:21.680Z,8204.00
2022-11-10T12:10:21.675Z,7768.00
2022-11-10T12:11:21.697Z,6048.00
2022-11-10T12:12:21.665Z,6476.00
2022-11-10T12:13:21.649Z,7420.00
2022-11-10T12:14:21.642Z,6744.00
2022-11-10T12:15:21.617Z,4160.00
2022-11-10T12:16:21.612Z,3520.00
2022-11-10T12:17:21.610Z,2372.00
2022-11-10T12:18:21.918Z,2436.00
2022-11-10T12:19:21.586Z,1704.00
2022-11-10T12:20:21.580Z,1616.00
2022-11-10T12:21:21.547Z,1600.00
2022-11-10T12:22:21.553Z,1632.00
2022-11-10T12:23:21.553Z,1560.00
2022-11-10T12:24:21.551Z,1448.00
2022-11-10T12:25:21.520Z,1468.00
2022-11-10T12:26:21.499Z,1472.00
2022-11-10T12:27:21.516Z,1536.00
2022-11-10T12:28:21.973Z,1488.00
2022-11-10T12:29:21.489Z,1464.00
2022-11-10T12:30:21.475Z,1496.00
2022-11-10T12:31:21.442Z,1508.00
2022-11-10T12:32:21.431Z,1420.00
2022-11-10T12:33:21.436Z,1348.00
2022-11-10T12:34:21.411Z,1400.00
2022-11-10T12:35:21.405Z,1428.00
2022-11-10T12:36:21.408Z,1396.00
2022-11-10T12:37:27.571Z,1328.00
2022-11-10T12:38:22.657Z,1308.00
2022-11-10T12:39:21.350Z,1372.00
2022-11-10T12:40:21.352Z,1332.00
2022-11-10T12:41:21.336Z,1248.00
2022-11-10T12:42:21.327Z,1172.00
2022-11-10T12:43:21.838Z,1204.00